createdAt,value
2019-03-05T00:01:21.201Z,99335.73
2019-03-05T00:03:50.878Z,99344.27
2019-03-05T00:06:20.431Z,99348.70
2019-03-05T00:08:50.012Z,99350.83
2019-03-05T00:11:19.555Z,99339.84
2019-03-05T00:13:49.051Z,99344.73
2019-03-05T00:16:18.629Z,99347.23
2019-03-05T00:18:48.320Z,99324.94
2019-03-05T00:21:19.110Z,99333.88
2019-03-05T00:23:55.040Z,99334.86
2019-03-05T00:26:31.009Z,99336.11
2019-03-05T00:29:37.337Z,99327.09
2019-03-05T00:32:06.700Z,99337.31
2019-03-05T00:35:11.779Z,99336.19
2019-03-05T00:37:51.244Z,99335.89
2019-03-05T00:40:50.831Z,99328.96
2019-03-05T00:43:57.230Z,99330.80
2019-03-05T00:46:37.016Z,99338.45
2019-03-05T00:49:35.921Z,99344.42
2019-03-05T00:53:00.292Z,99345.70
2019-03-05T00:56:09.017Z,99341.40
2019-03-05T00:58:52.500Z,99346.02
2019-03-05T01:01:28.403Z,99340.36
2019-03-05T01:04:23.109Z,99342.29
2019-03-05T01:06:52.532Z,99342.45
2019-03-05T01:09:23.522Z,99345.65
2019-03-05T01:11:52.931Z,99344.06
2019-03-05T01:14:24.297Z,99340.33
2019-03-05T01:16:53.691Z,99341.53
2019-03-05T01:19:23.068Z,99330.09
2019-03-05T01:21:52.520Z,99338.03
2019-03-05T01:24:21.993Z,99340.28
2019-03-05T01:26:51.636Z,99333.80
2019-03-05T01:29:21.371Z,99336.23
2019-03-05T01:32:15.973Z,99341.28
2019-03-05T01:35:22.540Z,99342.52
2019-03-05T01:37:52.265Z,99346.63
2019-03-05T01:40:40.816Z,99340.22
2019-03-05T01:43:10.566Z,99341.06
2019-03-05T01:45:40.174Z,99339.88
2019-03-05T01:48:09.903Z,99348.38
2019-03-05T01:50:39.561Z,99349.56
2019-03-05T01:53:09.331Z,99351.67
2019-03-05T01:55:38.994Z,99351.91
2019-03-05T01:58:08.722Z,99355.03
2019-03-05T02:00:38.508Z,99355.09
2019-03-05T02:03:08.161Z,99359.31
2019-03-05T02:05:37.829Z,99357.59
2019-03-05T02:08:07.480Z,99352.58
2019-03-05T02:10:37.154Z,99361.63
2019-03-05T02:13:06.929Z,99366.94
2019-03-05T02:15:36.574Z,99360.02
2019-03-05T02:18:06.228Z,99360.69
2019-03-05T02:20:35.753Z,99354.59
2019-03-05T02:23:24.691Z,99355.00
2019-03-05T02:26:43.280Z,99361.95
2019-03-05T02:29:33.061Z,99360.75
2019-03-05T02:32:46.760Z,99360.27
2019-03-05T02:35:28.912Z,99350.64
2019-03-05T02:38:42.211Z,99354.96
2019-03-05T02:41:42.341Z,99357.63
2019-03-05T02:45:14.055Z,99355.73
2019-03-05T02:48:10.141Z,99352.07
2019-03-05T02:51:20.697Z,99361.73
2019-03-05T02:54:25.800Z,99362.70
2019-03-05T02:57:13.407Z,99361.01
2019-03-05T02:59:42.803Z,99364.52
2019-03-05T03:02:31.043Z,99359.19
2019-03-05T03:05:14.080Z,99359.88
2019-03-05T03:07:43.436Z,99348.13
2019-03-05T03:10:21.085Z,99345.41
2019-03-05T03:12:50.433Z,99352.63
2019-03-05T03:15:20.256Z,99353.49
2019-03-05T03:17:50.317Z,99345.70
2019-03-05T03:20:20.858Z,99347.03
2019-03-05T03:22:50.277Z,99350.86
2019-03-05T03:25:23.482Z,99344.73
2019-03-05T03:27:52.955Z,99348.47
2019-03-05T03:30:23.835Z,99346.20
2019-03-05T03:32:53.230Z,99355.50
2019-03-05T03:35:22.666Z,99354.45
2019-03-05T03:37:52.013Z,99354.70
2019-03-05T03:40:22.605Z,99353.30
2019-03-05T03:42:52.147Z,99359.27
2019-03-05T03:45:23.225Z,99357.03
2019-03-05T03:47:52.601Z,99362.67
2019-03-05T03:50:21.979Z,99361.20
2019-03-05T03:52:51.383Z,99365.84
2019-03-05T03:55:20.772Z,99365.16
2019-03-05T03:57:50.135Z,99368.53
2019-03-05T04:00:23.881Z,99377.91
2019-03-05T04:02:53.665Z,99386.35
2019-03-05T04:05:23.056Z,99384.39
2019-03-05T04:07:52.452Z,99397.42
2019-03-05T04:10:21.811Z,99409.17
2019-03-05T04:12:51.207Z,99406.44
2019-03-05T04:15:21.497Z,99413.17
2019-03-05T04:17:50.880Z,99406.73
2019-03-05T04:20:28.833Z,99424.68
2019-03-05T04:22:58.199Z,99422.27
2019-03-05T04:25:27.552Z,99419.47
2019-03-05T04:27:56.950Z,99413.91
2019-03-05T04:30:26.323Z,99418.10
2019-03-05T04:32:55.719Z,99421.02
2019-03-05T04:35:25.078Z,99421.12
2019-03-05T04:37:54.462Z,99426.77
2019-03-05T04:40:23.796Z,99411.65
2019-03-05T04:42:53.192Z,99425.06
2019-03-05T04:46:04.137Z,99425.36
2019-03-05T04:48:33.517Z,99411.84
2019-03-05T04:51:15.259Z,99413.70
2019-03-05T04:53:44.652Z,99414.09
2019-03-05T04:56:14.101Z,99406.90
2019-03-05T04:58:43.492Z,99412.70
2019-03-05T05:01:12.871Z,99409.75
2019-03-05T05:03:42.289Z,99406.05
2019-03-05T05:06:11.618Z,99409.71
2019-03-05T05:08:41.012Z,99410.38
2019-03-05T05:11:10.346Z,99418.86
2019-03-05T05:13:39.842Z,99410.28
2019-03-05T05:16:09.445Z,99422.24
2019-03-05T05:18:39.245Z,99422.24
2019-03-05T05:21:08.896Z,99425.33
2019-03-05T05:23:38.563Z,99425.33
2019-03-05T05:26:08.207Z,99416.21
2019-03-05T05:28:37.862Z,99423.17
2019-03-05T05:31:07.565Z,99407.37
2019-03-05T05:33:37.292Z,99425.56
2019-03-05T05:36:06.942Z,99426.14
2019-03-05T05:38:36.622Z,99420.17
2019-03-05T05:41:06.271Z,99418.38
2019-03-05T05:43:35.912Z,99408.22
2019-03-05T05:46:05.573Z,99408.22
2019-03-05T05:48:35.247Z,99405.97
2019-03-05T05:51:04.886Z,99408.51
2019-03-05T05:53:34.565Z,99396.93
2019-03-05T05:56:04.293Z,99397.84
2019-03-05T05:58:33.927Z,99407.45
2019-03-05T06:01:07.267Z,99397.50
2019-03-05T06:03:37.906Z,99409.39
2019-03-05T06:06:07.736Z,99405.62
2019-03-05T06:08:37.373Z,99402.75
2019-03-05T06:11:07.020Z,99398.17
2019-03-05T06:13:36.555Z,99395.53
2019-03-05T06:16:06.255Z,99406.73
2019-03-05T06:18:35.909Z,99418.95
2019-03-05T06:21:05.677Z,99406.66
2019-03-05T06:23:35.339Z,99415.50
2019-03-05T06:26:04.991Z,99422.48
2019-03-05T06:28:36.249Z,99418.16
2019-03-05T06:31:05.934Z,99411.55
2019-03-05T06:33:35.518Z,99411.94
2019-03-05T06:36:05.249Z,99398.87
2019-03-05T06:38:34.902Z,99402.22
2019-03-05T06:41:04.569Z,99405.31
2019-03-05T06:43:34.110Z,99397.56
2019-03-05T06:46:03.807Z,99406.73
2019-03-05T06:48:33.475Z,99408.60
2019-03-05T06:51:03.160Z,99412.94
2019-03-05T06:53:33.859Z,99406.37
2019-03-05T06:56:03.561Z,99411.55
2019-03-05T06:58:33.415Z,99406.30
2019-03-05T07:01:03.114Z,99412.92
2019-03-05T07:03:32.846Z,99405.77
2019-03-05T07:06:38.378Z,99400.02
2019-03-05T07:09:45.927Z,99406.44
2019-03-05T07:13:05.238Z,99402.56
2019-03-05T07:16:33.520Z,99399.28
2019-03-05T07:19:26.065Z,99402.31
2019-03-05T07:22:19.434Z,99398.83
2019-03-05T07:24:52.457Z,99398.78
2019-03-05T07:27:27.516Z,99402.06
2019-03-05T07:29:59.827Z,99404.50
2019-03-05T07:32:29.489Z,99409.30
2019-03-05T07:34:58.938Z,99401.78
2019-03-05T07:37:28.449Z,99399.66
2019-03-05T07:39:58.087Z,99405.09
2019-03-05T07:42:28.125Z,99408.22
2019-03-05T07:44:57.711Z,99404.62
2019-03-05T07:47:27.125Z,99409.92
2019-03-05T07:49:56.588Z,99408.38
2019-03-05T07:52:26.173Z,99417.25
2019-03-05T07:54:55.865Z,99411.78
2019-03-05T07:57:25.498Z,99422.13
2019-03-05T07:59:55.250Z,99410.30
2019-03-05T08:02:25.013Z,99418.98
2019-03-05T08:04:54.741Z,99417.10
2019-03-05T08:07:24.537Z,99424.43
2019-03-05T08:09:54.330Z,99433.59
2019-03-05T08:13:26.546Z,99426.22
2019-03-05T08:16:08.778Z,99419.14
2019-03-05T08:18:38.477Z,99407.89
2019-03-05T08:21:08.377Z,99418.62
2019-03-05T08:23:38.398Z,99415.28
2019-03-05T08:26:08.174Z,99416.13
2019-03-05T08:28:37.825Z,99423.30
2019-03-05T08:31:07.520Z,99420.83
2019-03-05T08:33:37.363Z,99422.21
2019-03-05T08:36:07.275Z,99420.89
2019-03-05T08:38:37.020Z,99412.00
2019-03-05T08:41:27.260Z,99425.11
2019-03-05T08:43:56.858Z,99427.23
2019-03-05T08:46:26.429Z,99430.58
2019-03-05T08:48:56.272Z,99425.56
2019-03-05T08:51:26.119Z,99420.41
2019-03-05T08:53:56.022Z,99428.84
2019-03-05T08:56:26.155Z,99424.92
2019-03-05T08:58:56.247Z,99437.00
2019-03-05T09:01:25.855Z,99434.97
2019-03-05T09:03:55.892Z,99438.39
2019-03-05T09:06:25.627Z,99437.89
2019-03-05T09:08:55.233Z,99441.67
2019-03-05T09:11:24.869Z,99428.69
2019-03-05T09:13:54.538Z,99442.75
2019-03-05T09:16:24.219Z,99436.11
2019-03-05T09:18:53.885Z,99436.11
2019-03-05T09:21:23.446Z,99451.70
2019-03-05T09:23:52.937Z,99437.09
2019-03-05T09:26:22.762Z,99447.67
2019-03-05T09:28:52.394Z,99445.31
2019-03-05T09:31:21.910Z,99445.19
2019-03-05T09:33:51.604Z,99456.33
2019-03-05T09:36:21.011Z,99448.02
2019-03-05T09:38:50.698Z,99444.56
2019-03-05T09:41:20.392Z,99459.91
2019-03-05T09:43:50.257Z,99458.48
2019-03-05T09:46:19.834Z,99464.92
2019-03-05T09:48:49.530Z,99467.37
2019-03-05T09:51:19.246Z,99469.94
2019-03-05T09:53:48.863Z,99489.84
2019-03-05T09:56:18.547Z,99483.07
2019-03-05T09:58:48.163Z,99490.05
2019-03-05T10:01:18.323Z,99519.88
2019-03-05T10:03:47.932Z,99509.52
2019-03-05T10:06:17.356Z,99515.83
2019-03-05T10:08:46.907Z,99515.47
2019-03-05T10:11:16.879Z,99522.66
2019-03-05T10:13:46.384Z,99516.58
2019-03-05T10:16:16.257Z,99514.74
2019-03-05T10:18:45.953Z,99504.50
2019-03-05T10:21:15.887Z,99506.85
2019-03-05T10:23:45.489Z,99492.52
2019-03-05T10:26:15.178Z,99494.27
2019-03-05T10:28:44.727Z,99494.95
2019-03-05T10:31:14.405Z,99509.77
2019-03-05T10:33:44.115Z,99506.75
2019-03-05T10:36:13.854Z,99508.29
2019-03-05T10:38:43.496Z,99509.12
2019-03-05T10:41:13.065Z,99512.14
2019-03-05T10:43:42.548Z,99512.36
2019-03-05T10:46:12.351Z,99518.56
2019-03-05T10:48:43.146Z,99523.92
2019-03-05T10:51:12.690Z,99528.40
2019-03-05T10:53:42.436Z,99523.83
2019-03-05T10:56:11.920Z,99536.47
2019-03-05T10:58:41.411Z,99536.78
2019-03-05T11:01:11.553Z,99538.04
2019-03-05T11:03:41.230Z,99536.16
2019-03-05T11:06:10.806Z,99540.05
2019-03-05T11:08:40.472Z,99542.29
2019-03-05T11:11:13.819Z,99547.41
2019-03-05T11:13:41.852Z,99541.13
2019-03-05T11:16:11.765Z,99548.56
2019-03-05T11:18:41.426Z,99543.34
2019-03-05T11:21:11.327Z,99549.15
2019-03-05T11:23:40.972Z,99547.27
2019-03-05T11:26:10.610Z,99552.23
2019-03-05T11:28:40.176Z,99556.63
2019-03-05T11:31:10.025Z,99559.33
2019-03-05T11:33:39.566Z,99570.67
2019-03-05T11:36:10.071Z,99568.47
2019-03-05T11:38:39.866Z,99569.94
2019-03-05T11:41:09.506Z,99558.87
2019-03-05T11:43:39.115Z,99549.61
2019-03-05T11:46:12.469Z,99562.45
2019-03-05T11:48:42.034Z,99560.18
2019-03-05T11:51:11.709Z,99560.48
2019-03-05T11:53:41.474Z,99562.15
2019-03-05T11:56:11.185Z,99568.73
2019-03-05T11:58:40.800Z,99567.83
2019-03-05T12:01:23.010Z,99569.14
2019-03-05T12:03:52.824Z,99562.77
2019-03-05T12:06:22.355Z,99568.25
2019-03-05T12:08:52.034Z,99556.27
2019-03-05T12:11:21.781Z,99560.63
2019-03-05T12:13:51.544Z,99556.34
2019-03-05T12:16:21.201Z,99556.56
2019-03-05T12:18:51.090Z,99553.14
2019-03-05T12:21:20.834Z,99558.06
2019-03-05T12:23:50.645Z,99560.51
2019-03-05T12:26:20.400Z,99556.28
2019-03-05T12:28:50.164Z,99544.28
2019-03-05T12:31:19.924Z,99566.41
2019-03-05T12:33:49.594Z,99556.59
2019-03-05T12:36:19.334Z,99560.75
2019-03-05T12:38:49.027Z,99565.96
2019-03-05T12:41:18.627Z,99569.93
2019-03-05T12:43:48.198Z,99564.46
2019-03-05T12:46:17.889Z,99566.91
2019-03-05T12:48:47.710Z,99562.20
2019-03-05T12:51:17.417Z,99558.98
2019-03-05T12:53:47.136Z,99572.41
2019-03-05T12:56:23.827Z,99573.87
2019-03-05T12:58:48.379Z,99576.46
2019-03-05T13:01:17.846Z,99587.08
2019-03-05T13:03:47.207Z,99590.41
2019-03-05T13:06:16.619Z,99583.41
2019-03-05T13:08:45.974Z,99587.41
2019-03-05T13:11:15.381Z,99587.03
2019-03-05T13:13:47.632Z,99585.66
2019-03-05T13:16:15.889Z,99573.55
2019-03-05T13:18:45.258Z,99594.55
2019-03-05T13:21:14.663Z,99589.23
2019-03-05T13:23:44.027Z,99594.96
2019-03-05T13:26:13.390Z,99601.20
2019-03-05T13:28:42.744Z,99602.88
2019-03-05T13:31:12.165Z,99600.98
2019-03-05T13:33:42.183Z,99604.16
2019-03-05T13:36:13.444Z,99610.27
2019-03-05T13:38:45.254Z,99611.52
2019-03-05T13:41:15.523Z,99606.52
2019-03-05T13:43:45.259Z,99612.29
2019-03-05T13:46:14.655Z,99614.84
2019-03-05T13:49:40.300Z,99620.42
2019-03-05T13:52:41.163Z,99622.70
2019-03-05T13:55:27.937Z,99624.34
2019-03-05T13:58:44.854Z,99627.92
2019-03-05T14:01:14.296Z,99630.08
2019-03-05T14:03:49.237Z,99634.87
2019-03-05T14:07:15.200Z,99634.36
2019-03-05T14:09:42.947Z,99646.61
2019-03-05T14:12:12.534Z,99651.09
2019-03-05T14:14:41.968Z,99643.73
2019-03-05T14:17:23.620Z,99652.23
2019-03-05T14:19:53.241Z,99650.63
2019-03-05T14:22:22.663Z,99653.81
2019-03-05T14:25:01.558Z,99653.73
2019-03-05T14:27:23.200Z,99663.56
2019-03-05T14:29:52.550Z,99661.32
2019-03-05T14:32:21.923Z,99660.61
2019-03-05T14:35:13.011Z,99659.59
2019-03-05T14:37:42.466Z,99660.59
2019-03-05T14:40:24.023Z,99663.98
2019-03-05T14:42:49.019Z,99676.41
2019-03-05T14:45:21.023Z,99680.86
2019-03-05T14:47:50.539Z,99681.59
2019-03-05T14:50:19.923Z,99674.23
2019-03-05T14:52:49.412Z,99670.64
2019-03-05T14:55:18.830Z,99669.08
2019-03-05T14:57:48.445Z,99675.54
2019-03-05T15:00:19.267Z,99673.52
2019-03-05T15:02:48.770Z,99673.95
2019-03-05T15:05:18.240Z,99671.09
2019-03-05T15:07:47.688Z,99668.12
2019-03-05T15:10:17.126Z,99668.96
2019-03-05T15:12:46.659Z,99663.75
2019-03-05T15:15:18.772Z,99670.25
2019-03-05T15:17:48.156Z,99666.41
2019-03-05T15:20:17.840Z,99671.92
2019-03-05T15:22:47.415Z,99672.77
2019-03-05T15:25:16.779Z,99666.07
2019-03-05T15:27:46.275Z,99659.08
2019-03-05T15:30:17.301Z,99672.72
2019-03-05T15:32:46.711Z,99659.45
2019-03-05T15:35:16.139Z,99668.88
2019-03-05T15:37:45.565Z,99664.55
2019-03-05T15:40:15.614Z,99675.08
2019-03-05T15:42:45.073Z,99674.36
2019-03-05T15:45:16.183Z,99681.25
2019-03-05T15:47:45.615Z,99676.94
2019-03-05T15:50:17.460Z,99675.26
2019-03-05T15:52:46.860Z,99671.52
2019-03-05T15:55:16.269Z,99676.53
2019-03-05T15:57:45.621Z,99668.63
2019-03-05T16:00:20.302Z,99663.54
2019-03-05T16:02:49.673Z,99674.41
2019-03-05T16:05:20.803Z,99683.45
2019-03-05T16:07:50.167Z,99680.72
2019-03-05T16:10:19.588Z,99686.91
2019-03-05T16:12:48.935Z,99688.73
2019-03-05T16:15:18.854Z,99692.65
2019-03-05T16:17:48.886Z,99688.89
2019-03-05T16:20:18.335Z,99685.05
2019-03-05T16:22:51.206Z,99693.23
2019-03-05T16:25:18.881Z,99693.70
2019-03-05T16:27:48.296Z,99701.52
2019-03-05T16:30:37.534Z,99702.55
2019-03-05T16:33:23.890Z,99704.89
2019-03-05T16:36:21.374Z,99709.92
2019-03-05T16:39:05.885Z,99715.88
2019-03-05T16:42:05.187Z,99723.57
2019-03-05T16:44:56.588Z,99720.93
2019-03-05T16:47:50.941Z,99723.26
2019-03-05T16:50:38.338Z,99727.05
2019-03-05T16:53:41.698Z,99732.77
2019-03-05T16:56:28.847Z,99745.36
2019-03-05T16:59:35.244Z,99754.12
2019-03-05T17:02:32.650Z,99739.81
2019-03-05T17:05:22.317Z,99744.44
2019-03-05T17:08:09.837Z,99757.48
2019-03-05T17:11:00.827Z,99759.15
2019-03-05T17:13:30.415Z,99759.20
2019-03-05T17:15:59.808Z,99772.06
2019-03-05T17:18:29.269Z,99778.97
2019-03-05T17:20:58.683Z,99774.92
2019-03-05T17:23:28.064Z,99763.80
2019-03-05T17:25:57.474Z,99774.16
2019-03-05T17:28:26.862Z,99778.02
2019-03-05T17:30:56.308Z,99781.78
2019-03-05T17:33:25.781Z,99785.91
2019-03-05T17:35:55.115Z,99789.76
2019-03-05T17:38:24.531Z,99788.52
2019-03-05T17:40:53.884Z,99791.58
2019-03-05T17:43:23.436Z,99796.84
2019-03-05T17:45:52.840Z,99803.84
2019-03-05T17:48:22.400Z,99805.34
2019-03-05T17:50:51.928Z,99812.55
2019-03-05T17:53:21.543Z,99811.77
2019-03-05T17:55:51.077Z,99818.00
2019-03-05T17:58:20.717Z,99824.08
2019-03-05T18:00:50.466Z,99825.98
2019-03-05T18:03:19.837Z,99827.86
2019-03-05T18:05:49.230Z,99838.16
2019-03-05T18:08:18.583Z,99846.19
2019-03-05T18:10:48.031Z,99848.16
2019-03-05T18:13:17.387Z,99858.72
2019-03-05T18:15:46.806Z,99863.82
2019-03-05T18:18:16.477Z,99863.30
2019-03-05T18:20:45.882Z,99868.45
2019-03-05T18:23:15.307Z,99885.48
2019-03-05T18:25:44.744Z,99875.83
2019-03-05T18:28:14.100Z,99879.60
2019-03-05T18:30:43.682Z,99878.86
2019-03-05T18:33:13.133Z,99885.45
2019-03-05T18:35:42.597Z,99883.92
2019-03-05T18:38:14.922Z,99899.92
2019-03-05T18:40:44.330Z,99902.97
2019-03-05T18:43:16.746Z,99902.20
2019-03-05T18:45:46.314Z,99903.02
2019-03-05T18:48:15.701Z,99902.22
2019-03-05T18:50:45.334Z,99908.17
2019-03-05T18:53:14.930Z,99904.39
2019-03-05T18:55:44.398Z,99912.78
2019-03-05T18:58:13.870Z,99919.81
2019-03-05T19:00:43.294Z,99921.56
2019-03-05T19:03:12.786Z,99932.56
2019-03-05T19:05:42.217Z,99931.52
2019-03-05T19:08:11.626Z,99930.27
2019-03-05T19:10:41.034Z,99937.60
2019-03-05T19:13:10.451Z,99943.05
2019-03-05T19:15:39.938Z,99941.18
2019-03-05T19:18:09.282Z,99938.34
2019-03-05T19:20:38.760Z,99939.64
2019-03-05T19:23:08.145Z,99939.54
2019-03-05T19:25:37.573Z,99945.83
2019-03-05T19:28:07.011Z,99946.13
2019-03-05T19:30:36.446Z,99944.11
2019-03-05T19:33:05.907Z,99944.52
2019-03-05T19:35:35.283Z,99947.80
2019-03-05T19:38:04.697Z,99954.66
2019-03-05T19:40:35.732Z,99957.72
2019-03-05T19:43:05.191Z,99956.83
2019-03-05T19:45:34.591Z,99958.62
2019-03-05T19:48:03.995Z,99967.91
2019-03-05T19:50:33.473Z,99962.25
2019-03-05T19:53:02.883Z,99970.92
2019-03-05T19:55:32.300Z,99972.69
2019-03-05T19:58:11.480Z,99973.91
2019-03-05T20:00:52.563Z,99979.98
2019-03-05T20:03:21.979Z,99975.99
2019-03-05T20:05:51.373Z,99978.20
2019-03-05T20:08:20.807Z,99979.88
2019-03-05T20:10:50.163Z,99974.51
2019-03-05T20:13:19.593Z,99976.75
2019-03-05T20:15:48.972Z,99976.09
2019-03-05T20:18:18.386Z,99984.62
2019-03-05T20:20:47.699Z,99979.13
2019-03-05T20:23:17.166Z,99971.00
2019-03-05T20:25:47.017Z,99976.18
2019-03-05T20:28:16.426Z,99965.91
2019-03-05T20:30:46.118Z,99965.61
2019-03-05T20:33:15.506Z,99966.78
2019-03-05T20:35:45.127Z,99965.92
2019-03-05T20:38:14.656Z,99962.64
2019-03-05T20:40:44.065Z,99964.41
2019-03-05T20:43:13.465Z,99974.89
2019-03-05T20:45:42.974Z,99968.77
2019-03-05T20:48:12.431Z,99975.77
2019-03-05T20:50:41.834Z,99971.27
2019-03-05T20:53:11.272Z,99969.20
2019-03-05T20:55:40.677Z,99973.39
2019-03-05T20:58:10.287Z,99974.91
2019-03-05T21:00:39.706Z,99970.73
2019-03-05T21:03:09.131Z,99970.58
2019-03-05T21:05:40.263Z,99980.77
2019-03-05T21:08:09.754Z,99975.91
2019-03-05T21:10:39.430Z,99977.36
2019-03-05T21:13:09.276Z,99976.39
2019-03-05T21:15:38.714Z,99977.96
2019-03-05T21:18:08.579Z,99983.00
2019-03-05T21:20:39.196Z,99979.92
2019-03-05T21:23:08.693Z,99986.64
2019-03-05T21:25:38.107Z,99978.98
2019-03-05T21:28:07.450Z,99986.22
2019-03-05T21:30:36.820Z,99989.34
2019-03-05T21:33:06.165Z,99984.25
2019-03-05T21:35:35.638Z,99992.50
2019-03-05T21:38:05.054Z,99988.52
2019-03-05T21:40:34.474Z,99981.70
2019-03-05T21:43:03.969Z,99989.61
2019-03-05T21:45:35.293Z,99984.02
2019-03-05T21:48:04.977Z,99986.31
2019-03-05T21:50:34.310Z,99984.37
2019-03-05T21:53:03.822Z,99992.90
2019-03-05T21:55:33.265Z,99997.09
2019-03-05T21:58:02.741Z,99997.86
2019-03-05T22:00:32.220Z,99993.97
2019-03-05T22:03:01.707Z,99991.78
2019-03-05T22:05:32.648Z,99993.50
2019-03-05T22:08:02.401Z,99985.84
2019-03-05T22:10:31.904Z,99987.43
2019-03-05T22:13:01.955Z,99987.40
2019-03-05T22:15:31.425Z,99977.34
2019-03-05T22:18:00.843Z,99984.53
2019-03-05T22:20:30.248Z,99976.38
2019-03-05T22:22:59.929Z,99978.06
2019-03-05T22:25:29.449Z,99990.04
2019-03-05T22:27:59.349Z,99992.48
2019-03-05T22:30:29.178Z,99988.82
2019-03-05T22:32:58.578Z,99980.81
2019-03-05T22:35:28.522Z,99985.27
2019-03-05T22:37:58.056Z,99981.95
2019-03-05T22:40:27.438Z,99991.82
2019-03-05T22:42:56.874Z,99990.63
2019-03-05T22:45:26.226Z,99984.23
2019-03-05T22:47:55.627Z,99983.25
2019-03-05T22:50:25.012Z,99982.36
2019-03-05T22:52:54.463Z,99977.30
2019-03-05T22:55:23.807Z,99987.66
2019-03-05T22:57:53.222Z,99982.06
2019-03-05T23:01:03.538Z,99978.63
2019-03-05T23:03:32.983Z,99981.84
2019-03-05T23:06:02.953Z,99978.59
2019-03-05T23:08:32.373Z,99981.88
2019-03-05T23:11:01.725Z,99983.70
2019-03-05T23:13:31.122Z,99986.36
2019-03-05T23:16:00.770Z,99980.72
2019-03-05T23:18:30.187Z,99968.98
2019-03-05T23:20:59.522Z,99967.56
2019-03-05T23:23:28.923Z,99964.71
2019-03-05T23:25:58.391Z,99961.67
2019-03-05T23:28:27.754Z,99960.94
2019-03-05T23:30:57.103Z,99958.22
2019-03-05T23:33:26.504Z,99954.44
2019-03-05T23:35:55.846Z,99958.53
2019-03-05T23:38:25.235Z,99956.11
2019-03-05T23:40:54.584Z,99949.86
2019-03-05T23:43:23.982Z,99952.65
2019-03-05T23:45:53.368Z,99949.82
2019-03-05T23:48:22.779Z,99952.65
2019-03-05T23:50:52.127Z,99947.02
2019-03-05T23:53:21.579Z,99944.06
2019-03-05T23:55:50.977Z,99940.37
2019-03-05T23:58:20.394Z,99941.15
